Time;durP1;ratioP1;P1;durP2;ratioP2;P2;SDS_P1;SDS_P2;PMS_P1;PMS_P2;Temp;Humidity;BMP_temperature;BMP_pressure;BME280_temperature;BME280_humidity;BME280_pressure;Samples;Min_cycle;Max_cycle;Signal;HPM_P1;HPM_P2
2023/12/03 00:00:08;;;;;;;10.60;4.93;;;0.50;99.90;;;;;;4147365;28;20082;-79
2023/12/03 00:02:11;;;;;;;15.23;4.53;;;0.50;99.90;;;;;;4146662;28;20066;-79
2023/12/03 00:04:13;;;;;;;8.90;4.35;;;0.50;99.90;;;;;;4146086;28;20046;-79
2023/12/03 00:06:19;;;;;;;9.88;4.05;;;0.40;99.90;;;;;;4137938;28;20042;-79
2023/12/03 00:08:20;;;;;;;7.95;4.10;;;1.70;99.90;;;;;;4137242;28;20038;-79
2023/12/03 00:10:22;;;;;;;8.73;4.35;;;0.40;99.90;;;;;;4145427;28;20042;-79
2023/12/03 00:12:23;;;;;;;8.73;3.97;;;0.30;99.90;;;;;;4146945;28;20044;-79
2023/12/03 00:14:30;;;;;;;9.90;4.18;;;0.30;99.90;;;;;;4146734;28;20046;-79
2023/12/03 00:16:37;;;;;;;12.75;4.43;;;0.30;99.90;;;;;;4139728;28;20065;-79
2023/12/03 00:18:39;;;;;;;10.60;4.60;;;0.20;99.90;;;;;;4130641;28;20039;-79
2023/12/03 00:20:40;;;;;;;8.05;3.78;;;0.30;99.90;;;;;;4131137;28;20047;-79
2023/12/03 00:22:41;;;;;;;10.73;4.25;;;0.20;99.90;;;;;;4130990;28;20042;-79
2023/12/03 00:24:45;;;;;;;10.55;4.75;;;0.20;99.90;;;;;;4130792;28;20098;-79
2023/12/03 00:26:46;;;;;;;7.53;3.80;;;0.20;99.90;;;;;;4129026;28;20043;-79
2023/12/03 00:28:53;;;;;;;8.70;4.47;;;0.20;99.90;;;;;;4129625;28;20093;-80
2023/12/03 00:30:55;;;;;;;8.90;4.07;;;0.20;99.90;;;;;;4130078;28;20046;-79
2023/12/03 00:33:02;;;;;;;13.63;4.70;;;0.20;99.90;;;;;;4132155;28;20031;-79
2023/12/03 00:35:05;;;;;;;9.00;4.72;;;0.10;99.90;;;;;;4132086;28;20054;-79
2023/12/03 00:37:06;;;;;;;11.18;4.38;;;0.10;99.90;;;;;;4126997;28;20046;-79
2023/12/03 00:39:06;;;;;;;11.55;4.78;;;0.10;99.90;;;;;;4129184;28;20106;-79
2023/12/03 00:41:07;;;;;;;8.93;4.70;;;0.10;99.90;;;;;;4128045;28;20480;-79
2023/12/03 00:43:08;;;;;;;10.98;5.53;;;0.00;99.90;;;;;;4128371;28;20043;-79
2023/12/03 00:45:09;;;;;;;9.55;4.78;;;0.00;99.90;;;;;;4128048;28;20106;-79
2023/12/03 00:47:11;;;;;;;11.75;4.68;;;0.00;99.90;;;;;;4126548;28;20047;-78
2023/12/03 00:49:11;;;;;;;12.73;5.55;;;0.00;99.90;;;;;;4128954;28;20066;-79
2023/12/03 00:51:22;;;;;;;12.88;5.53;;;0.00;99.90;;;;;;4128930;28;20043;-79
2023/12/03 00:53:25;;;;;;;9.55;4.38;;;-0.10;99.90;;;;;;4128424;28;20047;-79
2023/12/03 00:55:26;;;;;;;11.60;5.55;;;-0.10;99.90;;;;;;4130036;28;20068;-79
2023/12/03 00:57:35;;;;;;;14.40;5.25;;;-0.10;99.90;;;;;;4130975;28;20070;-79
2023/12/03 00:59:36;;;;;;;12.98;5.03;;;-0.10;99.90;;;;;;4130725;28;20074;-79
2023/12/03 01:01:43;;;;;;;11.63;4.85;;;-0.10;99.90;;;;;;4130896;28;20052;-79
2023/12/03 01:03:46;;;;;;;14.07;6.18;;;-0.10;99.90;;;;;;4130565;28;20054;-79
2023/12/03 01:05:47;;;;;;;12.90;5.25;;;-0.20;99.90;;;;;;4131966;28;20050;-79
2023/12/03 01:07:47;;;;;;;12.00;5.18;;;-0.20;99.90;;;;;;4131541;28;20046;-79
2023/12/03 01:09:49;;;;;;;14.43;6.05;;;-0.20;99.90;;;;;;4132324;28;20081;-79
2023/12/03 01:11:51;;;;;;;12.10;5.25;;;-0.20;99.90;;;;;;4133943;28;20058;-78
2023/12/03 01:13:53;;;;;;;11.27;4.93;;;-0.20;99.90;;;;;;4130892;28;20050;-79
2023/12/03 01:15:55;;;;;;;11.60;4.90;;;-0.20;99.90;;;;;;4132173;28;20476;-79
2023/12/03 01:17:58;;;;;;;13.50;5.55;;;-0.20;99.90;;;;;;4133947;28;20046;-78
2023/12/03 01:20:11;;;;;;;10.80;5.50;;;-0.20;99.90;;;;;;4133788;28;20122;-79
2023/12/03 01:22:13;;;;;;;10.73;4.80;;;-0.20;99.90;;;;;;4132390;28;20062;-79
2023/12/03 01:24:16;;;;;;;10.60;4.53;;;-0.20;99.90;;;;;;4132301;28;20047;-79
2023/12/03 01:26:17;;;;;;;10.13;4.88;;;-0.20;99.90;;;;;;4131707;28;20099;-79
2023/12/03 01:28:20;;;;;;;13.77;4.20;;;-0.30;99.90;;;;;;4131887;28;20077;-79
2023/12/03 01:30:46;;;;;;;9.45;4.30;;;-0.30;99.90;;;;;;4131019;28;20519;-79
2023/12/03 01:32:46;;;;;;;11.50;4.63;;;-0.30;99.90;;;;;;4131987;28;20053;-79
2023/12/03 01:34:52;;;;;;;8.35;4.65;;;-0.30;99.90;;;;;;4132359;28;20047;-79
2023/12/03 01:36:55;;;;;;;9.75;5.03;;;-0.30;99.90;;;;;;4132234;28;20043;-79
2023/12/03 01:38:56;;;;;;;9.52;4.20;;;-0.40;99.90;;;;;;4131104;28;20110;-79
2023/12/03 01:40:58;;;;;;;9.77;4.40;;;-0.30;99.90;;;;;;4132212;28;20047;-79
2023/12/03 01:43:02;;;;;;;8.13;3.40;;;-0.40;99.90;;;;;;4130956;28;20105;-79
2023/12/03 01:45:05;;;;;;;9.02;3.78;;;-0.30;99.90;;;;;;4132723;28;20054;-79
2023/12/03 01:47:07;;;;;;;7.80;4.07;;;-0.30;99.90;;;;;;4131915;28;20039;-79
2023/12/03 01:49:08;;;;;;;7.78;3.65;;;-0.30;99.90;;;;;;4131793;28;20039;-79
2023/12/03 01:51:10;;;;;;;10.52;3.75;;;-0.30;99.90;;;;;;4131589;28;20054;-79
2023/12/03 01:53:15;;;;;;;8.27;4.05;;;-0.40;99.90;;;;;;4130981;28;20106;-78
2023/12/03 01:55:23;;;;;;;6.32;3.90;;;-0.40;99.90;;;;;;4131623;28;20076;-78
2023/12/03 01:57:27;;;;;;;11.48;4.28;;;0.00;99.90;;;;;;4131858;28;20042;-79
2023/12/03 01:59:30;;;;;;;7.72;3.30;;;-0.40;99.90;;;;;;4131900;28;20094;-78
2023/12/03 02:01:41;;;;;;;12.77;3.83;;;-0.40;99.90;;;;;;4138762;28;20046;-79
2023/12/03 02:03:43;;;;;;;7.88;3.40;;;-0.40;99.90;;;;;;4148264;28;20070;-78
2023/12/03 02:06:09;;;;;;;10.98;3.90;;;-0.40;99.90;;;;;;4147930;28;20541;-79
2023/12/03 02:08:15;;;;;;;5.60;3.15;;;-0.40;99.90;;;;;;4147795;28;20053;-78
2023/12/03 02:10:16;;;;;;;5.25;3.47;;;-0.40;99.90;;;;;;4147833;28;20038;-78
2023/12/03 02:12:46;;;;;;;8.60;3.03;;;0.10;99.90;;;;;;4146919;28;20046;-78
2023/12/03 02:14:48;;;;;;;7.05;2.75;;;-0.40;99.90;;;;;;4132099;28;20109;-79
2023/12/03 02:16:55;;;;;;;5.45;3.15;;;-0.50;99.90;;;;;;4132814;28;20042;-78
2023/12/03 02:18:57;;;;;;;7.22;2.72;;;-0.40;99.90;;;;;;4131857;28;20042;-78
2023/12/03 02:20:57;;;;;;;7.10;3.33;;;-0.40;99.90;;;;;;4147945;28;20038;-79
2023/12/03 02:23:02;;;;;;;7.63;2.55;;;-0.40;99.90;;;;;;4148205;28;20060;-79
2023/12/03 02:25:11;;;;;;;6.30;3.47;;;-0.50;99.90;;;;;;4147689;28;20104;-79
2023/12/03 02:27:14;;;;;;;5.20;2.60;;;-0.50;99.90;;;;;;4148000;28;20068;-79
2023/12/03 02:29:15;;;;;;;5.80;2.90;;;-0.50;99.90;;;;;;4147679;28;20050;-79
2023/12/03 02:31:18;;;;;;;7.25;3.60;;;-0.50;99.90;;;;;;4148075;28;20050;-79
2023/12/03 02:33:18;;;;;;;6.38;2.55;;;-0.50;99.90;;;;;;4147347;28;20042;-79
2023/12/03 02:35:20;;;;;;;7.30;3.20;;;-0.50;99.90;;;;;;4147315;28;20049;-79
2023/12/03 02:37:22;;;;;;;6.55;2.72;;;-0.50;99.90;;;;;;4147984;28;20046;-79
2023/12/03 02:39:32;;;;;;;6.30;2.85;;;-0.50;99.90;;;;;;4148007;28;20050;-79
2023/12/03 02:41:41;;;;;;;5.40;2.50;;;-0.50;99.90;;;;;;4147024;28;20069;-79
2023/12/03 02:43:42;;;;;;;7.38;3.10;;;-0.50;99.90;;;;;;4133357;28;20051;-78
2023/12/03 02:45:46;;;;;;;6.63;3.05;;;-0.50;99.90;;;;;;4130410;28;20045;-79
2023/12/03 02:47:52;;;;;;;8.57;3.40;;;-0.60;99.90;;;;;;4131089;28;20038;-79
2023/12/03 02:50:05;;;;;;;8.55;3.45;;;-0.60;99.90;;;;;;4133053;28;20128;-79
2023/12/03 02:52:14;;;;;;;7.95;3.15;;;-0.60;99.90;;;;;;4135170;28;20054;-79
2023/12/03 02:54:22;;;;;;;9.55;2.90;;;-0.70;99.90;;;;;;4134498;28;20082;-79
2023/12/03 02:56:23;;;;;;;7.53;3.08;;;-0.70;99.90;;;;;;4134533;28;20125;-79
2023/12/03 02:58:27;;;;;;;6.85;3.30;;;-0.60;99.90;;;;;;4134831;28;20074;-79
2023/12/03 03:00:34;;;;;;;4.32;2.53;;;-0.70;99.90;;;;;;4135279;28;20057;-79
2023/12/03 03:02:43;;;;;;;7.43;2.67;;;-0.80;99.90;;;;;;4134469;28;20102;-79
2023/12/03 03:04:51;;;;;;;7.32;3.33;;;-0.80;99.90;;;;;;4134844;28;20038;-77
2023/12/03 03:06:53;;;;;;;7.28;3.50;;;-0.80;99.90;;;;;;4135823;28;20051;-77
2023/12/03 03:08:59;;;;;;;6.38;3.00;;;-0.90;99.90;;;;;;4135564;28;20113;-77
2023/12/03 03:11:01;;;;;;;8.45;3.65;;;-0.90;99.90;;;;;;4135474;28;20098;-77
2023/12/03 03:13:30;;;;;;;6.75;3.10;;;-0.90;99.90;;;;;;4134128;28;20127;-78
2023/12/03 03:15:31;;;;;;;7.35;3.20;;;-0.90;99.90;;;;;;4135613;28;20047;-77
2023/12/03 03:17:33;;;;;;;5.50;2.65;;;-0.90;99.90;;;;;;4135068;28;20039;-78
2023/12/03 03:19:34;;;;;;;7.03;3.67;;;-0.90;99.90;;;;;;4135830;28;20054;-77
2023/12/03 03:21:38;;;;;;;5.40;3.10;;;-0.90;99.90;;;;;;4146269;28;20046;-78
2023/12/03 03:23:39;;;;;;;8.32;3.72;;;-0.90;99.90;;;;;;4151734;28;20158;-78
2023/12/03 03:25:41;;;;;;;5.40;2.90;;;-0.90;99.90;;;;;;4151563;28;20042;-77
2023/12/03 03:27:43;;;;;;;8.20;3.20;;;-0.90;99.90;;;;;;4151163;28;20097;-77
2023/12/03 03:29:44;;;;;;;7.43;3.60;;;-1.00;99.90;;;;;;4151481;28;20084;-77
2023/12/03 03:31:46;;;;;;;9.27;3.38;;;-1.00;99.90;;;;;;4166794;28;20054;-77
2023/12/03 03:33:54;;;;;;;8.27;3.33;;;-1.00;99.90;;;;;;4151070;28;20069;-77
2023/12/03 03:35:55;;;;;;;7.95;3.33;;;-0.90;99.90;;;;;;4151044;28;20097;-79
2023/12/03 03:38:01;;;;;;;5.97;3.28;;;-1.00;99.90;;;;;;4149990;28;20038;-78
2023/12/03 03:40:12;;;;;;;5.90;3.08;;;-1.00;99.90;;;;;;4149865;28;20046;-79
2023/12/03 03:42:16;;;;;;;6.68;3.58;;;-1.00;99.90;;;;;;4150755;28;20046;-79
2023/12/03 03:44:19;;;;;;;7.68;3.47;;;-1.00;99.90;;;;;;4140299;28;20070;-79
2023/12/03 03:46:22;;;;;;;5.97;3.17;;;-1.00;99.90;;;;;;4135115;28;20031;-79
2023/12/03 03:48:23;;;;;;;6.72;3.47;;;-1.00;99.90;;;;;;4134243;28;20103;-79
2023/12/03 03:50:29;;;;;;;5.95;3.28;;;-1.00;99.90;;;;;;4134290;28;20047;-79
2023/12/03 03:52:32;;;;;;;8.18;3.88;;;-1.00;99.90;;;;;;4134187;28;20058;-80
2023/12/03 03:54:33;;;;;;;8.93;4.13;;;-1.00;99.90;;;;;;4134138;28;20049;-78
2023/12/03 03:56:46;;;;;;;6.82;3.70;;;-1.00;99.90;;;;;;4134172;28;20039;-78
2023/12/03 03:58:53;;;;;;;7.53;3.63;;;-1.00;99.90;;;;;;4134755;28;20095;-79
2023/12/03 04:00:54;;;;;;;7.43;3.28;;;-1.00;99.90;;;;;;4134370;28;20114;-78
2023/12/03 04:02:57;;;;;;;9.05;3.80;;;-1.00;99.90;;;;;;4135080;28;20046;-79
2023/12/03 04:05:08;;;;;;;13.90;4.65;;;-1.00;99.90;;;;;;4133642;28;20071;-79
2023/12/03 04:07:11;;;;;;;7.03;4.05;;;-1.00;99.90;;;;;;4134091;28;20047;-79
2023/12/03 04:09:13;;;;;;;7.80;3.92;;;-1.00;99.90;;;;;;4134525;28;20093;-77
2023/12/03 04:11:13;;;;;;;7.47;4.05;;;-1.10;99.90;;;;;;4134338;28;20065;-79
2023/12/03 04:13:16;;;;;;;8.50;4.30;;;-1.00;99.90;;;;;;4134208;28;20106;-79
2023/12/03 04:15:18;;;;;;;6.93;3.60;;;-1.10;99.90;;;;;;4134269;28;20042;-79
2023/12/03 04:17:20;;;;;;;8.45;3.75;;;-1.10;99.90;;;;;;4133754;28;20069;-79
2023/12/03 04:19:22;;;;;;;6.70;3.30;;;-1.10;99.90;;;;;;4134697;28;20039;-79
2023/12/03 04:21:26;;;;;;;7.80;3.60;;;-1.10;99.90;;;;;;4133969;28;20038;-78
2023/12/03 04:23:27;;;;;;;5.90;3.55;;;-1.10;99.90;;;;;;4133910;28;20102;-79
2023/12/03 04:25:28;;;;;;;10.40;3.40;;;-1.20;99.90;;;;;;4134338;28;20075;-78
2023/12/03 04:27:36;;;;;;;6.03;3.17;;;-1.20;99.90;;;;;;4134328;28;20484;-79
2023/12/03 04:29:37;;;;;;;10.30;4.38;;;-1.20;99.90;;;;;;4134350;28;20146;-78
2023/12/03 04:31:47;;;;;;;10.15;3.22;;;-1.20;99.90;;;;;;4133690;28;20114;-78
2023/12/03 04:33:59;;;;;;;8.50;4.15;;;-1.20;99.90;;;;;;4134621;28;20047;-78
2023/12/03 04:36:07;;;;;;;6.97;3.63;;;-1.30;99.90;;;;;;4134952;28;20043;-78
2023/12/03 04:38:14;;;;;;;9.60;4.13;;;-1.30;99.90;;;;;;4134569;28;20070;-78
2023/12/03 04:40:17;;;;;;;8.25;2.97;;;-1.30;99.90;;;;;;4134865;28;20043;-78
2023/12/03 04:42:19;;;;;;;10.32;3.53;;;-1.40;99.90;;;;;;4134773;28;20051;-78
2023/12/03 04:44:31;;;;;;;6.50;3.30;;;-1.40;99.90;;;;;;4134743;28;20094;-78
2023/12/03 04:46:43;;;;;;;8.45;2.75;;;-1.40;99.90;;;;;;4134968;28;20026;-78
2023/12/03 04:48:51;;;;;;;6.82;3.38;;;-1.40;99.90;;;;;;4133189;28;20039;-78
2023/12/03 04:50:56;;;;;;;6.28;3.13;;;-1.40;99.90;;;;;;4133344;28;20506;-78
2023/12/03 04:52:57;;;;;;;8.65;3.53;;;-1.50;99.90;;;;;;4133082;28;20093;-78
2023/12/03 04:55:00;;;;;;;6.05;3.92;;;-1.40;99.90;;;;;;4134052;28;20043;-78
2023/12/03 04:57:07;;;;;;;9.93;3.85;;;-1.50;99.90;;;;;;4134340;28;20047;-78
2023/12/03 04:59:15;;;;;;;6.97;3.30;;;-1.40;99.90;;;;;;4134482;28;20042;-78
2023/12/03 05:01:20;;;;;;;7.60;3.40;;;-1.40;99.90;;;;;;4133115;28;20061;-78
2023/12/03 05:03:21;;;;;;;5.70;3.13;;;-1.40;99.90;;;;;;4132796;28;20054;-78
2023/12/03 05:05:28;;;;;;;9.10;4.03;;;-1.40;99.90;;;;;;4133427;28;20067;-77
2023/12/03 05:07:30;;;;;;;8.32;3.88;;;-1.40;99.90;;;;;;4132601;28;20046;-78
2023/12/03 05:09:31;;;;;;;7.80;4.22;;;-1.30;99.90;;;;;;4133316;28;20051;-79
2023/12/03 05:11:40;;;;;;;9.93;4.22;;;-1.30;99.90;;;;;;4133385;28;20114;-79
2023/12/03 05:14:07;;;;;;;;;;;-1.30;99.90;;;;;;4133479;28;20043;-79
2023/12/03 05:16:09;;;;;;;7.03;4.10;;;-1.20;99.90;;;;;;4133453;28;19961;-79
2023/12/03 05:18:17;;;;;;;13.10;4.38;;;-1.20;99.90;;;;;;4132578;28;20121;-79
2023/12/03 05:20:32;;;;;;;8.05;4.57;;;-1.10;99.90;;;;;;4133138;28;20062;-79
2023/12/03 05:22:35;;;;;;;7.00;3.65;;;-1.10;99.90;;;;;;4132703;28;20555;-79
2023/12/03 05:24:45;;;;;;;11.60;5.30;;;-1.10;99.90;;;;;;4133049;28;20093;-79
2023/12/03 05:26:53;;;;;;;14.68;4.90;;;-1.00;99.90;;;;;;4133152;28;20074;-79
2023/12/03 05:28:56;;;;;;;13.52;5.72;;;-1.00;99.90;;;;;;4138396;28;20042;-79
2023/12/03 05:31:09;;;;;;;28.70;5.57;;;-1.00;99.90;;;;;;4149622;28;20049;-79
2023/12/03 05:33:15;;;;;;;131.90;9.98;;;-1.00;99.90;;;;;;4149356;28;20042;-79
2023/12/03 05:35:22;;;;;;;67.40;8.07;;;-0.90;99.90;;;;;;4150405;28;20101;-79
2023/12/03 05:37:28;;;;;;;113.25;10.23;;;-0.90;99.90;;;;;;4149833;28;20050;-78
2023/12/03 05:39:30;;;;;;;104.20;9.75;;;-0.90;99.90;;;;;;4149452;28;20046;-80
2023/12/03 05:41:42;;;;;;;150.27;11.77;;;-0.80;99.90;;;;;;4149804;28;20073;-78
2023/12/03 05:43:56;;;;;;;123.55;11.27;;;-0.80;99.90;;;;;;4147366;28;20038;-79
2023/12/03 05:45:59;;;;;;;112.93;9.65;;;-0.80;99.90;;;;;;4133409;28;20054;-79
2023/12/03 05:48:06;;;;;;;71.00;8.65;;;-0.80;99.90;;;;;;4134643;28;20039;-79
2023/12/03 05:50:07;;;;;;;65.35;9.07;;;-0.70;99.90;;;;;;4133691;28;20102;-78
2023/12/03 05:52:16;;;;;;;49.47;9.60;;;-0.70;99.90;;;;;;4133126;28;20049;-80
2023/12/03 05:54:25;;;;;;;58.22;11.00;;;-0.70;99.90;;;;;;4133050;28;20575;-79
2023/12/03 05:56:32;;;;;;;146.18;13.77;;;-0.50;99.90;;;;;;4133563;28;20042;-79
2023/12/03 05:58:52;;;;;;;42.30;10.82;;;-0.70;99.90;;;;;;4135498;28;20047;-79
2023/12/03 06:01:02;;;;;;;55.13;11.93;;;-0.70;99.90;;;;;;4133785;28;20050;-78
2023/12/03 06:03:10;;;;;;;63.42;12.80;;;0.70;99.90;;;;;;4134745;28;20039;-79
2023/12/03 06:05:11;;;;;;;55.17;11.88;;;-0.70;99.90;;;;;;4134446;28;20053;-78
2023/12/03 06:07:16;;;;;;;55.22;12.55;;;-0.70;99.90;;;;;;4134758;28;20047;-78
2023/12/03 06:09:27;;;;;;;59.13;13.02;;;0.10;99.90;;;;;;4133326;28;20035;-77
2023/12/03 06:11:36;;;;;;;77.68;14.20;;;-0.70;99.90;;;;;;4133342;28;20062;-78
2023/12/03 06:13:42;;;;;;;73.93;14.02;;;-0.70;99.90;;;;;;4134122;28;20082;-78
2023/12/03 06:15:47;;;;;;;68.43;14.38;;;-0.70;99.90;;;;;;4133821;28;20042;-78
2023/12/03 06:17:47;;;;;;;94.28;16.13;;;-0.60;99.90;;;;;;4133331;28;20107;-78
2023/12/03 06:19:50;;;;;;;96.05;16.15;;;-0.60;99.90;;;;;;4133266;28;20046;-78
2023/12/03 06:21:55;;;;;;;86.28;16.10;;;-0.60;99.90;;;;;;4133210;28;20038;-78
2023/12/03 06:23:57;;;;;;;74.45;14.77;;;-0.60;99.90;;;;;;4132836;28;20049;-79
2023/12/03 06:25:59;;;;;;;108.88;17.25;;;-0.50;99.90;;;;;;4133384;28;20050;-79
2023/12/03 06:28:06;;;;;;;78.75;16.65;;;-0.50;99.90;;;;;;4133185;28;20099;-79
2023/12/03 06:30:08;;;;;;;88.00;16.55;;;0.20;99.90;;;;;;4132834;28;20106;-79
2023/12/03 06:32:08;;;;;;;102.40;16.95;;;-0.40;99.90;;;;;;4132735;28;20053;-78
2023/12/03 06:34:16;;;;;;;118.03;17.17;;;-0.40;99.90;;;;;;4132246;28;20074;-78
2023/12/03 06:36:32;;;;;;;121.25;16.80;;;-0.40;99.90;;;;;;4132055;28;20098;-78
2023/12/03 06:38:33;;;;;;;125.95;16.67;;;-0.30;99.90;;;;;;4132554;28;20077;-78
2023/12/03 06:40:34;;;;;;;74.68;15.93;;;-0.30;99.90;;;;;;4132760;28;20038;-78
2023/12/03 06:42:36;;;;;;;95.85;14.85;;;-0.30;99.90;;;;;;4132688;28;20042;-79
2023/12/03 06:44:36;;;;;;;101.85;15.95;;;-0.20;99.90;;;;;;4132354;28;20046;-78
2023/12/03 06:46:41;;;;;;;100.93;15.52;;;-0.20;99.90;;;;;;4132380;28;20049;-77
2023/12/03 06:48:42;;;;;;;81.43;13.18;;;-0.20;99.90;;;;;;4132644;28;20042;-78
2023/12/03 06:50:43;;;;;;;85.88;13.70;;;-0.20;99.90;;;;;;4142301;28;20105;-78
2023/12/03 06:52:44;;;;;;;114.45;14.05;;;-0.20;99.90;;;;;;4148878;28;20046;-78
2023/12/03 06:55:06;;;;;;;78.93;13.95;;;-0.20;99.90;;;;;;4142064;28;20066;-78
2023/12/03 06:57:09;;;;;;;115.40;14.80;;;-0.10;99.90;;;;;;4131307;28;20059;-79
2023/12/03 06:59:14;;;;;;;99.07;14.07;;;-0.10;99.90;;;;;;4132913;28;20054;-79
2023/12/03 07:01:19;;;;;;;62.88;12.98;;;-0.10;99.90;;;;;;4131588;28;20411;-79
2023/12/03 07:03:20;;;;;;;61.13;13.52;;;-0.10;99.90;;;;;;4132211;28;20043;-78
2023/12/03 07:05:41;;;;;;;69.65;12.20;;;-0.10;99.90;;;;;;4132307;28;20070;-79
2023/12/03 07:07:42;;;;;;;77.47;11.50;;;0.00;99.90;;;;;;4132291;28;20042;-79
2023/12/03 07:09:43;;;;;;;77.78;13.13;;;0.00;99.90;;;;;;4132389;28;20050;-78
2023/12/03 07:11:45;;;;;;;70.93;12.43;;;0.00;99.90;;;;;;4131857;28;20059;-78
2023/12/03 07:13:47;;;;;;;94.00;13.75;;;0.00;99.90;;;;;;4132094;28;20057;-79
2023/12/03 07:15:50;;;;;;;80.03;13.30;;;0.00;99.90;;;;;;4147505;28;20050;-79
2023/12/03 07:17:59;;;;;;;67.85;13.50;;;0.00;99.90;;;;;;4147508;28;20450;-79
2023/12/03 07:20:00;;;;;;;62.65;12.75;;;1.60;99.90;;;;;;4147866;28;20063;-79
2023/12/03 07:22:02;;;;;;;60.17;10.50;;;0.00;99.90;;;;;;4147604;28;20046;-79
2023/12/03 07:24:13;;;;;;;74.00;13.30;;;0.10;99.90;;;;;;4148244;28;20046;-79
2023/12/03 07:26:23;;;;;;;93.47;13.32;;;0.10;99.90;;;;;;4148469;28;20089;-79
2023/12/03 07:28:30;;;;;;;63.40;10.43;;;0.10;99.90;;;;;;4148277;28;20050;-79
2023/12/03 07:30:43;;;;;;;64.07;12.05;;;0.10;99.90;;;;;;4133368;28;20057;-79
2023/12/03 07:32:45;;;;;;;78.95;13.75;;;0.10;99.90;;;;;;4131664;28;20050;-79
2023/12/03 07:34:59;;;;;;;77.60;12.43;;;0.20;99.90;;;;;;4131777;28;20502;-79
2023/12/03 07:37:00;;;;;;;62.70;13.45;;;0.20;99.90;;;;;;4134490;28;20054;-79
2023/12/03 07:39:11;;;;;;;51.50;11.13;;;0.20;99.90;;;;;;4134519;28;20050;-79
2023/12/03 07:41:12;;;;;;;89.55;12.43;;;0.20;99.90;;;;;;4134214;28;20043;-79
2023/12/03 07:43:18;;;;;;;77.32;11.82;;;0.20;99.90;;;;;;4134681;28;20047;-79
2023/12/03 07:45:25;;;;;;;77.78;12.07;;;0.20;99.90;;;;;;4133807;28;20038;-79
2023/12/03 07:47:29;;;;;;;78.50;12.85;;;0.30;99.90;;;;;;4144390;28;20077;-79
2023/12/03 07:49:30;;;;;;;63.78;12.43;;;0.20;99.90;;;;;;4133277;28;20078;-79
2023/12/03 07:51:48;;;;;;;59.65;13.55;;;0.30;99.90;;;;;;4133999;28;20127;-79
2023/12/03 07:53:50;;;;;;;61.93;11.13;;;0.20;99.90;;;;;;4133650;28;20050;-79
2023/12/03 07:55:51;;;;;;;61.42;10.85;;;0.30;99.90;;;;;;4132959;28;20282;-79
2023/12/03 07:58:11;;;;;;;62.42;11.93;;;0.30;99.90;;;;;;4132579;28;20074;-79
2023/12/03 08:00:18;;;;;;;51.63;12.55;;;0.40;99.90;;;;;;4133983;28;20058;-79
2023/12/03 08:02:19;;;;;;;49.83;13.73;;;0.40;99.90;;;;;;4135029;28;20118;-78
2023/12/03 08:04:20;;;;;;;51.88;12.65;;;0.40;99.90;;;;;;4132376;28;20074;-77
2023/12/03 08:06:26;;;;;;;63.90;12.40;;;0.40;99.90;;;;;;4139907;28;20057;-78
2023/12/03 08:08:43;;;;;;;53.38;11.95;;;0.40;99.90;;;;;;4153139;28;20034;-77
2023/12/03 08:10:44;;;;;;;65.95;13.73;;;0.40;99.90;;;;;;4149444;28;20046;-77
2023/12/03 08:12:44;;;;;;;67.32;13.23;;;0.40;99.90;;;;;;4150012;28;20049;-77
2023/12/03 08:14:45;;;;;;;67.55;12.63;;;0.50;99.90;;;;;;4133205;28;20463;-78
2023/12/03 08:16:46;;;;;;;57.15;12.50;;;0.40;99.90;;;;;;4133911;28;20043;-78
2023/12/03 08:18:47;;;;;;;52.00;12.60;;;0.50;99.90;;;;;;4133858;28;20043;-77
2023/12/03 08:20:55;;;;;;;58.60;11.73;;;0.50;99.90;;;;;;4132822;28;20054;-77
2023/12/03 08:22:57;;;;;;;49.70;10.70;;;0.50;99.90;;;;;;4133246;28;20043;-80
2023/12/03 08:24:58;;;;;;;28.63;7.38;;;0.50;99.90;;;;;;4132805;28;20047;-78
2023/12/03 08:27:00;;;;;;;43.92;8.63;;;0.50;99.90;;;;;;4131872;28;20078;-78
2023/12/03 08:29:09;;;;;;;59.75;12.98;;;0.50;99.90;;;;;;4132652;28;20043;-78
2023/12/03 08:31:10;;;;;;;56.33;11.25;;;0.60;99.90;;;;;;4132181;28;20043;-78
2023/12/03 08:33:22;;;;;;;63.22;10.75;;;0.50;99.90;;;;;;4131665;28;20047;-79
2023/12/03 08:35:23;;;;;;;72.65;10.60;;;0.60;99.90;;;;;;4132162;28;20479;-79
2023/12/03 08:37:25;;;;;;;43.45;9.82;;;0.50;99.90;;;;;;4132174;28;20102;-79
2023/12/03 08:39:26;;;;;;;48.70;10.48;;;0.60;99.90;;;;;;4133873;28;20074;-78
2023/12/03 08:41:32;;;;;;;43.47;9.75;;;0.50;99.90;;;;;;4133989;28;20054;-78
2023/12/03 08:43:35;;;;;;;34.35;8.40;;;0.50;99.90;;;;;;4133266;28;20543;-79
2023/12/03 08:45:42;;;;;;;43.53;9.05;;;0.50;99.90;;;;;;4136509;28;20066;-79
2023/12/03 08:47:45;;;;;;;44.03;9.75;;;0.50;99.90;;;;;;4134319;28;20047;-82
2023/12/03 08:49:48;;;;;;;42.90;8.90;;;0.50;99.90;;;;;;4134095;28;20056;-81
2023/12/03 08:51:53;;;;;;;42.30;9.10;;;0.50;99.90;;;;;;4134624;28;20079;-79
2023/12/03 08:54:01;;;;;;;45.13;9.32;;;0.50;99.90;;;;;;4136582;28;20037;-80
2023/12/03 08:56:02;;;;;;;45.05;11.27;;;0.50;99.90;;;;;;4134323;28;20042;-81
2023/12/03 08:58:06;;;;;;;41.53;10.65;;;0.50;99.90;;;;;;4133673;28;20094;-80
2023/12/03 09:00:16;;;;;;;40.47;9.60;;;0.50;99.90;;;;;;4133580;28;20046;-80
2023/12/03 09:02:27;;;;;;;39.88;9.48;;;0.60;99.90;;;;;;4132948;28;20064;-80
2023/12/03 09:04:28;;;;;;;37.15;9.20;;;0.60;99.90;;;;;;4133418;28;20043;-81
2023/12/03 09:06:44;;;;;;;38.15;7.72;;;0.60;99.90;;;;;;4133369;28;20047;-81
2023/12/03 09:08:46;;;;;;;25.50;6.97;;;0.60;99.90;;;;;;4132423;28;20372;-81
2023/12/03 09:10:48;;;;;;;42.85;9.50;;;0.70;99.90;;;;;;4131502;28;20046;-81
2023/12/03 09:12:51;;;;;;;46.97;11.23;;;0.70;99.90;;;;;;4131594;28;20061;-80
2023/12/03 09:14:53;;;;;;;54.00;9.63;;;0.70;99.90;;;;;;4132058;28;20042;-81
2023/12/03 09:16:54;;;;;;;46.13;10.95;;;0.70;99.90;;;;;;4131470;28;20061;-81
2023/12/03 09:18:56;;;;;;;52.85;14.00;;;0.70;99.90;;;;;;4132202;28;20035;-81
2023/12/03 09:20:57;;;;;;;47.20;11.13;;;0.80;99.90;;;;;;4132105;28;20051;-81
2023/12/03 09:22:59;;;;;;;52.42;11.95;;;0.80;99.90;;;;;;4131562;28;20050;-81
2023/12/03 09:25:06;;;;;;;42.60;9.90;;;0.80;99.90;;;;;;4131151;28;20046;-81
2023/12/03 09:27:19;;;;;;;47.38;11.05;;;0.80;99.90;;;;;;4130202;28;20038;-80
2023/12/03 09:29:21;;;;;;;44.08;9.68;;;0.90;99.90;;;;;;4131557;28;20070;-80
2023/12/03 09:31:23;;;;;;;52.92;12.02;;;0.80;99.90;;;;;;4131511;28;20053;-81
2023/12/03 09:33:30;;;;;;;57.30;12.88;;;0.90;99.90;;;;;;4130908;28;20042;-81
2023/12/03 09:35:42;;;;;;;54.05;13.43;;;1.80;99.90;;;;;;4130736;28;20043;-81
2023/12/03 09:37:50;;;;;;;53.15;12.30;;;1.00;99.90;;;;;;4130259;28;20534;-81
2023/12/03 09:39:51;;;;;;;53.80;13.88;;;1.00;99.90;;;;;;4130024;28;20038;-81
2023/12/03 09:41:56;;;;;;;55.33;13.63;;;1.00;99.90;;;;;;4129427;28;20087;-81
2023/12/03 09:44:00;;;;;;;50.65;11.68;;;1.10;99.90;;;;;;4129850;28;20057;-80
2023/12/03 09:46:03;;;;;;;56.47;13.70;;;1.10;99.90;;;;;;4129110;28;20046;-80
2023/12/03 09:48:13;;;;;;;53.53;14.02;;;1.10;99.90;;;;;;4129428;28;20051;-81
2023/12/03 09:50:25;;;;;;;51.58;13.13;;;0.80;99.90;;;;;;4129832;28;20061;-81
2023/12/03 09:52:32;;;;;;;43.40;14.43;;;1.10;99.90;;;;;;4129158;28;20137;-81
2023/12/03 09:54:40;;;;;;;42.35;11.77;;;1.10;99.90;;;;;;4129425;28;20086;-81
2023/12/03 09:56:43;;;;;;;46.90;12.43;;;1.20;99.90;;;;;;4129532;28;20074;-81
2023/12/03 09:58:46;;;;;;;43.63;14.82;;;1.20;99.90;;;;;;4128749;28;20062;-80
2023/12/03 10:00:48;;;;;;;40.53;13.32;;;1.20;99.90;;;;;;4128741;28;20051;-81
2023/12/03 10:02:52;;;;;;;40.38;12.82;;;1.20;99.90;;;;;;4127911;28;20049;-81
2023/12/03 10:04:57;;;;;;;47.50;14.25;;;1.30;99.90;;;;;;4127528;28;20054;-81
2023/12/03 10:07:07;;;;;;;42.25;12.43;;;1.40;99.90;;;;;;4127212;28;20043;-79
2023/12/03 10:09:08;;;;;;;36.55;12.35;;;2.10;99.90;;;;;;4126372;28;20050;-79
2023/12/03 10:11:13;;;;;;;39.55;13.25;;;2.50;99.90;;;;;;4127106;28;20106;-79
2023/12/03 10:13:16;;;;;;;41.70;14.55;;;1.70;99.90;;;;;;4128009;28;20155;-79
2023/12/03 10:15:17;;;;;;;39.60;13.63;;;1.70;99.90;;;;;;4127332;28;20051;-79
2023/12/03 10:17:22;;;;;;;38.20;13.25;;;1.80;99.90;;;;;;4127398;28;20062;-79
2023/12/03 10:19:30;;;;;;;36.72;12.32;;;1.90;99.90;;;;;;4127093;28;20051;-79
2023/12/03 10:21:31;;;;;;;39.60;13.07;;;2.00;99.90;;;;;;4126679;28;20484;-79
2023/12/03 10:23:32;;;;;;;33.22;11.48;;;2.10;99.90;;;;;;4126137;28;20121;-79
2023/12/03 10:25:35;;;;;;;31.88;11.82;;;1.20;99.90;;;;;;4135170;28;20057;-79
2023/12/03 10:27:39;;;;;;;36.67;12.43;;;2.10;99.90;;;;;;4125514;28;20502;-79
2023/12/03 10:29:40;;;;;;;31.35;12.95;;;2.10;99.90;;;;;;4125385;28;20050;-79
2023/12/03 10:31:41;;;;;;;35.92;12.90;;;2.00;99.90;;;;;;4124958;28;20046;-79
2023/12/03 10:33:46;;;;;;;37.65;13.93;;;2.10;99.90;;;;;;4124833;28;20399;-79
2023/12/03 10:35:47;;;;;;;36.90;12.70;;;2.20;99.90;;;;;;4124805;28;20058;-79
2023/12/03 10:37:48;;;;;;;35.08;13.55;;;2.30;99.90;;;;;;4124306;28;20118;-79
2023/12/03 10:39:50;;;;;;;32.70;11.63;;;2.40;99.90;;;;;;4123915;28;20054;-79
2023/12/03 10:41:51;;;;;;;32.38;12.02;;;2.50;99.90;;;;;;4133390;28;20057;-79
2023/12/03 10:43:53;;;;;;;34.03;12.68;;;2.40;99.90;;;;;;4138593;28;20070;-79